sensor_id;sensor_type;location;lat;lon;timestamp;P1;durP1;ratioP1;P2;durP2;ratioP2
29728;SDS011;20055;51.498;11.960;2023-08-12T00:00:43;10.82;;;4.88;;
29728;SDS011;20055;51.498;11.960;2023-08-12T00:03:10;13.88;;;4.55;;
29728;SDS011;20055;51.498;11.960;2023-08-12T00:05:36;14.88;;;4.57;;
29728;SDS011;20055;51.498;11.960;2023-08-12T00:08:03;17.60;;;4.68;;
29728;SDS011;20055;51.498;11.960;2023-08-12T00:10:30;12.30;;;4.43;;
29728;SDS011;20055;51.498;11.960;2023-08-12T00:12:56;8.65;;;3.80;;
29728;SDS011;20055;51.498;11.960;2023-08-12T00:15:23;8.60;;;4.63;;
29728;SDS011;20055;51.498;11.960;2023-08-12T00:17:49;13.73;;;6.13;;
29728;SDS011;20055;51.498;11.960;2023-08-12T00:20:15;22.23;;;5.43;;
29728;SDS011;20055;51.498;11.960;2023-08-12T00:22:42;8.35;;;4.80;;
29728;SDS011;20055;51.498;11.960;2023-08-12T00:25:08;8.60;;;4.43;;
29728;SDS011;20055;51.498;11.960;2023-08-12T00:27:35;17.83;;;4.65;;
29728;SDS011;20055;51.498;11.960;2023-08-12T00:30:01;11.30;;;4.25;;
29728;SDS011;20055;51.498;11.960;2023-08-12T00:32:28;13.40;;;4.20;;
29728;SDS011;20055;51.498;11.960;2023-08-12T00:34:54;11.32;;;4.22;;
29728;SDS011;20055;51.498;11.960;2023-08-12T00:37:21;16.77;;;6.05;;
29728;SDS011;20055;51.498;11.960;2023-08-12T00:39:47;13.23;;;4.22;;
29728;SDS011;20055;51.498;11.960;2023-08-12T00:42:13;6.82;;;4.28;;
29728;SDS011;20055;51.498;11.960;2023-08-12T00:44:39;9.60;;;3.97;;
29728;SDS011;20055;51.498;11.960;2023-08-12T00:47:06;12.90;;;4.25;;
29728;SDS011;20055;51.498;11.960;2023-08-12T00:49:33;9.52;;;3.92;;
29728;SDS011;20055;51.498;11.960;2023-08-12T00:51:59;10.20;;;3.58;;
29728;SDS011;20055;51.498;11.960;2023-08-12T00:54:26;8.93;;;4.20;;
29728;SDS011;20055;51.498;11.960;2023-08-12T00:56:54;8.30;;;4.10;;
29728;SDS011;20055;51.498;11.960;2023-08-12T00:59:20;14.82;;;3.85;;
29728;SDS011;20055;51.498;11.960;2023-08-12T01:01:49;14.15;;;4.32;;
29728;SDS011;20055;51.498;11.960;2023-08-12T01:04:15;19.52;;;6.20;;
29728;SDS011;20055;51.498;11.960;2023-08-12T01:06:41;10.80;;;3.88;;
29728;SDS011;20055;51.498;11.960;2023-08-12T01:09:09;5.90;;;3.58;;
29728;SDS011;20055;51.498;11.960;2023-08-12T01:14:14;11.55;;;3.95;;
29728;SDS011;20055;51.498;11.960;2023-08-12T01:16:47;12.40;;;4.38;;
29728;SDS011;20055;51.498;11.960;2023-08-12T01:19:35;8.60;;;3.58;;
29728;SDS011;20055;51.498;11.960;2023-08-12T01:22:03;13.77;;;4.15;;
29728;SDS011;20055;51.498;11.960;2023-08-12T01:24:42;9.85;;;3.42;;
29728;SDS011;20055;51.498;11.960;2023-08-12T01:27:10;10.95;;;3.15;;
29728;SDS011;20055;51.498;11.960;2023-08-12T01:29:38;12.85;;;3.30;;
29728;SDS011;20055;51.498;11.960;2023-08-12T01:37:32;20.65;;;4.28;;
29728;SDS011;20055;51.498;11.960;2023-08-12T01:40:01;8.95;;;3.65;;
29728;SDS011;20055;51.498;11.960;2023-08-12T01:42:30;9.00;;;3.83;;
29728;SDS011;20055;51.498;11.960;2023-08-12T01:45:01;13.00;;;4.65;;
29728;SDS011;20055;51.498;11.960;2023-08-12T01:47:30;14.70;;;4.07;;
29728;SDS011;20055;51.498;11.960;2023-08-12T01:49:56;8.57;;;3.75;;
29728;SDS011;20055;51.498;11.960;2023-08-12T01:52:23;9.00;;;3.83;;
29728;SDS011;20055;51.498;11.960;2023-08-12T01:54:50;15.65;;;4.63;;
29728;SDS011;20055;51.498;11.960;2023-08-12T01:57:17;17.58;;;4.25;;
29728;SDS011;20055;51.498;11.960;2023-08-12T01:59:43;8.45;;;3.67;;
29728;SDS011;20055;51.498;11.960;2023-08-12T02:02:10;12.35;;;4.10;;
29728;SDS011;20055;51.498;11.960;2023-08-12T02:04:37;10.48;;;3.88;;
29728;SDS011;20055;51.498;11.960;2023-08-12T02:07:04;10.30;;;4.22;;
29728;SDS011;20055;51.498;11.960;2023-08-12T02:09:31;14.30;;;3.75;;
29728;SDS011;20055;51.498;11.960;2023-08-12T02:11:57;12.00;;;4.43;;
29728;SDS011;20055;51.498;11.960;2023-08-12T02:14:24;17.08;;;4.88;;
29728;SDS011;20055;51.498;11.960;2023-08-12T02:16:50;10.82;;;3.83;;
29728;SDS011;20055;51.498;11.960;2023-08-12T02:19:17;17.70;;;4.43;;
29728;SDS011;20055;51.498;11.960;2023-08-12T02:21:43;8.63;;;3.60;;
29728;SDS011;20055;51.498;11.960;2023-08-12T02:24:10;12.05;;;4.10;;
29728;SDS011;20055;51.498;11.960;2023-08-12T02:26:38;8.55;;;4.13;;
29728;SDS011;20055;51.498;11.960;2023-08-12T02:29:04;14.75;;;3.97;;
29728;SDS011;20055;51.498;11.960;2023-08-12T02:31:31;9.63;;;4.43;;
29728;SDS011;20055;51.498;11.960;2023-08-12T02:33:57;8.57;;;4.13;;
29728;SDS011;20055;51.498;11.960;2023-08-12T02:36:25;11.73;;;3.65;;
29728;SDS011;20055;51.498;11.960;2023-08-12T02:38:54;14.93;;;4.10;;
29728;SDS011;20055;51.498;11.960;2023-08-12T02:41:21;13.82;;;3.90;;
29728;SDS011;20055;51.498;11.960;2023-08-12T02:43:47;8.23;;;4.13;;
29728;SDS011;20055;51.498;11.960;2023-08-12T02:46:13;19.50;;;4.10;;
29728;SDS011;20055;51.498;11.960;2023-08-12T02:48:42;12.35;;;4.10;;
29728;SDS011;20055;51.498;11.960;2023-08-12T02:51:08;12.32;;;4.40;;
29728;SDS011;20055;51.498;11.960;2023-08-12T02:53:35;9.50;;;4.22;;
29728;SDS011;20055;51.498;11.960;2023-08-12T02:56:01;15.18;;;4.53;;
29728;SDS011;20055;51.498;11.960;2023-08-12T02:58:28;14.52;;;4.47;;
29728;SDS011;20055;51.498;11.960;2023-08-12T03:00:54;8.25;;;4.57;;
29728;SDS011;20055;51.498;11.960;2023-08-12T03:03:21;8.88;;;4.25;;
29728;SDS011;20055;51.498;11.960;2023-08-12T03:05:47;10.60;;;4.57;;
29728;SDS011;20055;51.498;11.960;2023-08-12T03:08:14;11.52;;;4.28;;
29728;SDS011;20055;51.498;11.960;2023-08-12T03:10:41;9.68;;;4.00;;
29728;SDS011;20055;51.498;11.960;2023-08-12T03:13:09;10.65;;;3.80;;
29728;SDS011;20055;51.498;11.960;2023-08-12T03:15:40;15.73;;;4.90;;
29728;SDS011;20055;51.498;11.960;2023-08-12T03:18:09;10.70;;;4.38;;
29728;SDS011;20055;51.498;11.960;2023-08-12T03:20:36;16.65;;;4.55;;
29728;SDS011;20055;51.498;11.960;2023-08-12T03:23:03;13.60;;;4.68;;
29728;SDS011;20055;51.498;11.960;2023-08-12T03:25:29;10.65;;;4.68;;
29728;SDS011;20055;51.498;11.960;2023-08-12T03:27:56;13.80;;;4.68;;
29728;SDS011;20055;51.498;11.960;2023-08-12T03:30:22;8.82;;;4.53;;
29728;SDS011;20055;51.498;11.960;2023-08-12T03:32:49;9.45;;;4.43;;
29728;SDS011;20055;51.498;11.960;2023-08-12T03:35:17;15.00;;;4.85;;
29728;SDS011;20055;51.498;11.960;2023-08-12T03:37:44;8.27;;;4.70;;
29728;SDS011;20055;51.498;11.960;2023-08-12T03:40:11;15.00;;;4.55;;
29728;SDS011;20055;51.498;11.960;2023-08-12T03:42:39;12.85;;;4.70;;
29728;SDS011;20055;51.498;11.960;2023-08-12T03:45:06;9.30;;;4.05;;
29728;SDS011;20055;51.498;11.960;2023-08-12T03:47:32;8.07;;;4.32;;
29728;SDS011;20055;51.498;11.960;2023-08-12T03:49:59;10.63;;;4.38;;
29728;SDS011;20055;51.498;11.960;2023-08-12T03:52:25;8.13;;;4.55;;
29728;SDS011;20055;51.498;11.960;2023-08-12T03:54:51;16.65;;;4.63;;
29728;SDS011;20055;51.498;11.960;2023-08-12T03:57:20;10.15;;;4.65;;
29728;SDS011;20055;51.498;11.960;2023-08-12T03:59:47;16.27;;;4.82;;
29728;SDS011;20055;51.498;11.960;2023-08-12T04:02:13;11.93;;;4.75;;
29728;SDS011;20055;51.498;11.960;2023-08-12T04:04:39;18.98;;;4.75;;
29728;SDS011;20055;51.498;11.960;2023-08-12T04:07:08;17.40;;;4.93;;
29728;SDS011;20055;51.498;11.960;2023-08-12T04:09:34;12.88;;;4.95;;
29728;SDS011;20055;51.498;11.960;2023-08-12T04:12:00;7.28;;;4.88;;
29728;SDS011;20055;51.498;11.960;2023-08-12T04:14:27;15.02;;;5.50;;
29728;SDS011;20055;51.498;11.960;2023-08-12T04:16:54;16.35;;;4.97;;
29728;SDS011;20055;51.498;11.960;2023-08-12T04:19:20;14.23;;;4.40;;
29728;SDS011;20055;51.498;11.960;2023-08-12T04:21:46;13.10;;;4.70;;
29728;SDS011;20055;51.498;11.960;2023-08-12T04:24:13;10.20;;;5.60;;
29728;SDS011;20055;51.498;11.960;2023-08-12T04:26:39;10.88;;;4.90;;
29728;SDS011;20055;51.498;11.960;2023-08-12T04:29:06;20.55;;;5.57;;
29728;SDS011;20055;51.498;11.960;2023-08-12T04:31:36;17.02;;;5.95;;
29728;SDS011;20055;51.498;11.960;2023-08-12T04:34:02;24.23;;;5.00;;
29728;SDS011;20055;51.498;11.960;2023-08-12T04:36:30;12.68;;;5.07;;
29728;SDS011;20055;51.498;11.960;2023-08-12T04:38:58;9.07;;;4.50;;
29728;SDS011;20055;51.498;11.960;2023-08-12T04:41:24;10.15;;;4.65;;
29728;SDS011;20055;51.498;11.960;2023-08-12T04:43:52;7.72;;;4.72;;
29728;SDS011;20055;51.498;11.960;2023-08-12T04:46:19;16.83;;;4.97;;
29728;SDS011;20055;51.498;11.960;2023-08-12T04:48:45;15.65;;;5.10;;
29728;SDS011;20055;51.498;11.960;2023-08-12T04:51:11;11.18;;;4.75;;
29728;SDS011;20055;51.498;11.960;2023-08-12T04:53:38;9.95;;;4.50;;
29728;SDS011;20055;51.498;11.960;2023-08-12T04:56:05;19.95;;;5.25;;
29728;SDS011;20055;51.498;11.960;2023-08-12T04:58:31;13.07;;;4.82;;
29728;SDS011;20055;51.498;11.960;2023-08-12T05:00:58;13.45;;;4.65;;
29728;SDS011;20055;51.498;11.960;2023-08-12T05:03:25;17.95;;;4.80;;
29728;SDS011;20055;51.498;11.960;2023-08-12T05:05:53;16.20;;;4.93;;
29728;SDS011;20055;51.498;11.960;2023-08-12T05:10:49;13.48;;;4.63;;
29728;SDS011;20055;51.498;11.960;2023-08-12T05:13:16;13.10;;;5.65;;
29728;SDS011;20055;51.498;11.960;2023-08-12T05:15:46;18.55;;;4.45;;
29728;SDS011;20055;51.498;11.960;2023-08-12T05:18:14;9.95;;;4.75;;
29728;SDS011;20055;51.498;11.960;2023-08-12T05:20:41;12.40;;;4.63;;
29728;SDS011;20055;51.498;11.960;2023-08-12T05:23:09;14.85;;;4.22;;
29728;SDS011;20055;51.498;11.960;2023-08-12T05:25:35;5.18;;;3.13;;
29728;SDS011;20055;51.498;11.960;2023-08-12T05:28:01;7.93;;;3.53;;
29728;SDS011;20055;51.498;11.960;2023-08-12T05:30:28;9.43;;;3.20;;
29728;SDS011;20055;51.498;11.960;2023-08-12T05:32:54;9.57;;;3.15;;
29728;SDS011;20055;51.498;11.960;2023-08-12T05:35:20;8.88;;;3.55;;
29728;SDS011;20055;51.498;11.960;2023-08-12T05:37:47;12.70;;;3.85;;
29728;SDS011;20055;51.498;11.960;2023-08-12T05:40:13;15.45;;;3.80;;
29728;SDS011;20055;51.498;11.960;2023-08-12T05:42:39;6.53;;;4.03;;
29728;SDS011;20055;51.498;11.960;2023-08-12T05:45:06;9.25;;;3.88;;
29728;SDS011;20055;51.498;11.960;2023-08-12T05:47:33;7.28;;;3.65;;
29728;SDS011;20055;51.498;11.960;2023-08-12T05:49:59;15.52;;;4.93;;
29728;SDS011;20055;51.498;11.960;2023-08-12T05:52:26;9.30;;;4.35;;
29728;SDS011;20055;51.498;11.960;2023-08-12T05:54:52;10.38;;;4.85;;
29728;SDS011;20055;51.498;11.960;2023-08-12T05:57:18;18.70;;;4.55;;
29728;SDS011;20055;51.498;11.960;2023-08-12T05:59:45;13.45;;;4.25;;
29728;SDS011;20055;51.498;11.960;2023-08-12T06:02:11;10.77;;;4.18;;
29728;SDS011;20055;51.498;11.960;2023-08-12T06:04:37;11.15;;;4.30;;
29728;SDS011;20055;51.498;11.960;2023-08-12T06:07:04;10.15;;;3.53;;
29728;SDS011;20055;51.498;11.960;2023-08-12T06:09:30;8.10;;;3.97;;
29728;SDS011;20055;51.498;11.960;2023-08-12T06:11:56;8.40;;;3.55;;
29728;SDS011;20055;51.498;11.960;2023-08-12T06:14:23;10.25;;;3.88;;
29728;SDS011;20055;51.498;11.960;2023-08-12T06:16:49;6.68;;;3.42;;
29728;SDS011;20055;51.498;11.960;2023-08-12T06:19:15;10.05;;;4.35;;
29728;SDS011;20055;51.498;11.960;2023-08-12T06:21:42;11.75;;;3.63;;
29728;SDS011;20055;51.498;11.960;2023-08-12T06:24:08;11.07;;;4.30;;
29728;SDS011;20055;51.498;11.960;2023-08-12T06:26:34;10.45;;;4.55;;
29728;SDS011;20055;51.498;11.960;2023-08-12T06:29:00;8.10;;;3.97;;
29728;SDS011;20055;51.498;11.960;2023-08-12T06:31:27;9.77;;;4.32;;
29728;SDS011;20055;51.498;11.960;2023-08-12T06:33:53;7.82;;;4.07;;
29728;SDS011;20055;51.498;11.960;2023-08-12T06:36:19;7.90;;;3.72;;
29728;SDS011;20055;51.498;11.960;2023-08-12T06:38:45;11.05;;;4.22;;
29728;SDS011;20055;51.498;11.960;2023-08-12T06:41:11;8.02;;;4.03;;
29728;SDS011;20055;51.498;11.960;2023-08-12T06:43:38;9.82;;;3.88;;
29728;SDS011;20055;51.498;11.960;2023-08-12T06:46:04;14.40;;;3.58;;
29728;SDS011;20055;51.498;11.960;2023-08-12T06:48:30;10.98;;;3.33;;
29728;SDS011;20055;51.498;11.960;2023-08-12T06:50:56;7.05;;;3.30;;
29728;SDS011;20055;51.498;11.960;2023-08-12T06:53:24;7.00;;;4.07;;
29728;SDS011;20055;51.498;11.960;2023-08-12T06:55:52;6.00;;;3.40;;
29728;SDS011;20055;51.498;11.960;2023-08-12T06:58:18;8.63;;;3.78;;
29728;SDS011;20055;51.498;11.960;2023-08-12T07:00:44;14.40;;;3.83;;
29728;SDS011;20055;51.498;11.960;2023-08-12T07:03:10;12.70;;;3.90;;
29728;SDS011;20055;51.498;11.960;2023-08-12T07:05:37;9.18;;;3.88;;
29728;SDS011;20055;51.498;11.960;2023-08-12T07:08:03;6.30;;;3.70;;
29728;SDS011;20055;51.498;11.960;2023-08-12T07:10:29;6.45;;;3.75;;
29728;SDS011;20055;51.498;11.960;2023-08-12T07:12:56;13.60;;;5.38;;
29728;SDS011;20055;51.498;11.960;2023-08-12T07:15:22;11.25;;;4.00;;
29728;SDS011;20055;51.498;11.960;2023-08-12T07:17:49;7.63;;;3.88;;
29728;SDS011;20055;51.498;11.960;2023-08-12T07:20:15;11.65;;;3.60;;
29728;SDS011;20055;51.498;11.960;2023-08-12T07:22:41;6.85;;;3.28;;
29728;SDS011;20055;51.498;11.960;2023-08-12T07:25:08;5.97;;;3.38;;
29728;SDS011;20055;51.498;11.960;2023-08-12T07:27:34;8.98;;;3.90;;
29728;SDS011;20055;51.498;11.960;2023-08-12T07:30:00;8.35;;;3.75;;
29728;SDS011;20055;51.498;11.960;2023-08-12T07:32:27;5.88;;;3.35;;
29728;SDS011;20055;51.498;11.960;2023-08-12T07:34:53;7.40;;;3.45;;
29728;SDS011;20055;51.498;11.960;2023-08-12T07:37:20;11.50;;;3.45;;
29728;SDS011;20055;51.498;11.960;2023-08-12T07:39:46;6.30;;;3.70;;
29728;SDS011;20055;51.498;11.960;2023-08-12T07:42:12;8.15;;;3.85;;
29728;SDS011;20055;51.498;11.960;2023-08-12T07:44:38;11.63;;;4.45;;
29728;SDS011;20055;51.498;11.960;2023-08-12T07:47:05;12.65;;;4.13;;
29728;SDS011;20055;51.498;11.960;2023-08-12T07:49:31;10.68;;;3.97;;
29728;SDS011;20055;51.498;11.960;2023-08-12T07:51:57;10.02;;;4.80;;
29728;SDS011;20055;51.498;11.960;2023-08-12T07:54:23;10.95;;;4.88;;
29728;SDS011;20055;51.498;11.960;2023-08-12T07:56:49;5.90;;;3.78;;
29728;SDS011;20055;51.498;11.960;2023-08-12T07:59:16;8.40;;;4.35;;
29728;SDS011;20055;51.498;11.960;2023-08-12T08:01:42;12.75;;;3.85;;
29728;SDS011;20055;51.498;11.960;2023-08-12T08:04:08;14.63;;;4.78;;
29728;SDS011;20055;51.498;11.960;2023-08-12T08:06:34;10.55;;;4.75;;
29728;SDS011;20055;51.498;11.960;2023-08-12T08:09:01;11.93;;;5.70;;
29728;SDS011;20055;51.498;11.960;2023-08-12T08:11:29;11.73;;;5.32;;
29728;SDS011;20055;51.498;11.960;2023-08-12T08:13:57;8.02;;;5.03;;
29728;SDS011;20055;51.498;11.960;2023-08-12T08:16:24;9.75;;;4.50;;
29728;SDS011;20055;51.498;11.960;2023-08-12T08:18:51;9.88;;;4.78;;
29728;SDS011;20055;51.498;11.960;2023-08-12T08:21:17;5.50;;;4.07;;
29728;SDS011;20055;51.498;11.960;2023-08-12T08:23:43;9.82;;;5.22;;
29728;SDS011;20055;51.498;11.960;2023-08-12T08:26:10;6.15;;;4.15;;
29728;SDS011;20055;51.498;11.960;2023-08-12T08:28:37;8.30;;;4.70;;
29728;SDS011;20055;51.498;11.960;2023-08-12T08:31:03;10.90;;;4.35;;
29728;SDS011;20055;51.498;11.960;2023-08-12T08:33:30;10.57;;;4.50;;
29728;SDS011;20055;51.498;11.960;2023-08-12T08:35:56;14.55;;;5.13;;
29728;SDS011;20055;51.498;11.960;2023-08-12T08:38:22;8.02;;;4.25;;
29728;SDS011;20055;51.498;11.960;2023-08-12T08:40:49;7.97;;;4.53;;
29728;SDS011;20055;51.498;11.960;2023-08-12T08:43:17;7.60;;;4.30;;
29728;SDS011;20055;51.498;11.960;2023-08-12T08:45:46;13.07;;;5.10;;
29728;SDS011;20055;51.498;11.960;2023-08-12T08:48:17;13.63;;;5.53;;
29728;SDS011;20055;51.498;11.960;2023-08-12T08:50:44;8.73;;;5.13;;
29728;SDS011;20055;51.498;11.960;2023-08-12T08:53:11;10.57;;;6.07;;
29728;SDS011;20055;51.498;11.960;2023-08-12T08:55:39;10.57;;;5.13;;
29728;SDS011;20055;51.498;11.960;2023-08-12T08:58:06;7.72;;;4.70;;
29728;SDS011;20055;51.498;11.960;2023-08-12T09:00:33;17.02;;;5.53;;
29728;SDS011;20055;51.498;11.960;2023-08-12T09:03:00;10.20;;;4.13;;
29728;SDS011;20055;51.498;11.960;2023-08-12T09:05:28;9.90;;;4.65;;
29728;SDS011;20055;51.498;11.960;2023-08-12T09:07:55;9.80;;;4.90;;
29728;SDS011;20055;51.498;11.960;2023-08-12T09:10:24;10.52;;;4.93;;
29728;SDS011;20055;51.498;11.960;2023-08-12T09:12:53;15.18;;;4.75;;
29728;SDS011;20055;51.498;11.960;2023-08-12T09:15:23;13.02;;;4.93;;
29728;SDS011;20055;51.498;11.960;2023-08-12T09:17:49;10.88;;;4.70;;
29728;SDS011;20055;51.498;11.960;2023-08-12T09:20:16;7.07;;;4.38;;
29728;SDS011;20055;51.498;11.960;2023-08-12T09:22:42;8.35;;;4.45;;
29728;SDS011;20055;51.498;11.960;2023-08-12T09:25:09;8.13;;;4.30;;
29728;SDS011;20055;51.498;11.960;2023-08-12T09:27:36;8.98;;;4.00;;
29728;SDS011;20055;51.498;11.960;2023-08-12T09:30:04;7.90;;;4.50;;
29728;SDS011;20055;51.498;11.960;2023-08-12T09:32:33;8.20;;;4.63;;
29728;SDS011;20055;51.498;11.960;2023-08-12T09:35:04;8.48;;;4.28;;
29728;SDS011;20055;51.498;11.960;2023-08-12T09:37:31;6.95;;;4.38;;
29728;SDS011;20055;51.498;11.960;2023-08-12T09:39:58;5.25;;;4.15;;
29728;SDS011;20055;51.498;11.960;2023-08-12T09:42:24;7.95;;;4.30;;
29728;SDS011;20055;51.498;11.960;2023-08-12T09:44:51;5.90;;;4.45;;
29728;SDS011;20055;51.498;11.960;2023-08-12T09:47:18;8.27;;;3.72;;
29728;SDS011;20055;51.498;11.960;2023-08-12T09:49:45;11.40;;;5.10;;
29728;SDS011;20055;51.498;11.960;2023-08-12T09:52:12;14.25;;;6.75;;
29728;SDS011;20055;51.498;11.960;2023-08-12T09:54:39;7.30;;;5.22;;
29728;SDS011;20055;51.498;11.960;2023-08-12T09:57:06;8.18;;;5.22;;
29728;SDS011;20055;51.498;11.960;2023-08-12T09:59:34;5.90;;;4.32;;
29728;SDS011;20055;51.498;11.960;2023-08-12T10:02:01;8.30;;;4.40;;
29728;SDS011;20055;51.498;11.960;2023-08-12T10:04:42;9.75;;;4.47;;
29728;SDS011;20055;51.498;11.960;2023-08-12T10:07:11;6.43;;;4.85;;
29728;SDS011;20055;51.498;11.960;2023-08-12T10:09:40;16.08;;;7.13;;
29728;SDS011;20055;51.498;11.960;2023-08-12T10:12:08;10.05;;;6.03;;
29728;SDS011;20055;51.498;11.960;2023-08-12T10:14:35;11.60;;;7.10;;
29728;SDS011;20055;51.498;11.960;2023-08-12T10:17:02;14.27;;;5.75;;
29728;SDS011;20055;51.498;11.960;2023-08-12T10:19:29;7.30;;;5.28;;
29728;SDS011;20055;51.498;11.960;2023-08-12T10:21:56;9.88;;;5.00;;
29728;SDS011;20055;51.498;11.960;2023-08-12T10:24:28;11.73;;;5.13;;
29728;SDS011;20055;51.498;11.960;2023-08-12T10:26:55;10.93;;;3.85;;
29728;SDS011;20055;51.498;11.960;2023-08-12T10:29:25;10.90;;;4.28;;
29728;SDS011;20055;51.498;11.960;2023-08-12T10:31:51;7.63;;;3.77;;
29728;SDS011;20055;51.498;11.960;2023-08-12T10:34:21;12.60;;;5.30;;
29728;SDS011;20055;51.498;11.960;2023-08-12T10:36:53;10.82;;;3.92;;
29728;SDS011;20055;51.498;11.960;2023-08-12T10:39:27;5.32;;;3.80;;
29728;SDS011;20055;51.498;11.960;2023-08-12T10:41:57;9.13;;;3.60;;
29728;SDS011;20055;51.498;11.960;2023-08-12T10:44:27;5.18;;;2.92;;
29728;SDS011;20055;51.498;11.960;2023-08-12T10:47:09;5.80;;;3.10;;
29728;SDS011;20055;51.498;11.960;2023-08-12T10:49:43;5.53;;;2.53;;
29728;SDS011;20055;51.498;11.960;2023-08-12T10:52:28;6.32;;;3.05;;
29728;SDS011;20055;51.498;11.960;2023-08-12T10:57:49;9.05;;;2.80;;
29728;SDS011;20055;51.498;11.960;2023-08-12T11:00:17;7.57;;;3.00;;
29728;SDS011;20055;51.498;11.960;2023-08-12T11:02:51;5.93;;;2.88;;
29728;SDS011;20055;51.498;11.960;2023-08-12T11:05:19;5.50;;;3.03;;
29728;SDS011;20055;51.498;11.960;2023-08-12T11:07:47;5.28;;;2.38;;
29728;SDS011;20055;51.498;11.960;2023-08-12T11:10:35;6.55;;;3.03;;
29728;SDS011;20055;51.498;11.960;2023-08-12T11:13:01;4.20;;;3.00;;
29728;SDS011;20055;51.498;11.960;2023-08-12T11:15:33;4.63;;;2.72;;
29728;SDS011;20055;51.498;11.960;2023-08-12T11:18:12;3.88;;;2.50;;
29728;SDS011;20055;51.498;11.960;2023-08-12T11:20:40;6.43;;;2.90;;
29728;SDS011;20055;51.498;11.960;2023-08-12T11:23:07;6.07;;;2.28;;
29728;SDS011;20055;51.498;11.960;2023-08-12T11:25:34;5.75;;;3.20;;
29728;SDS011;20055;51.498;11.960;2023-08-12T11:28:03;3.83;;;2.53;;
29728;SDS011;20055;51.498;11.960;2023-08-12T11:30:31;3.28;;;2.25;;
29728;SDS011;20055;51.498;11.960;2023-08-12T11:32:57;6.65;;;3.35;;
29728;SDS011;20055;51.498;11.960;2023-08-12T11:35:24;4.13;;;2.70;;
29728;SDS011;20055;51.498;11.960;2023-08-12T11:37:51;6.65;;;2.60;;
29728;SDS011;20055;51.498;11.960;2023-08-12T11:40:19;6.47;;;2.38;;
29728;SDS011;20055;51.498;11.960;2023-08-12T11:42:46;9.50;;;2.53;;
29728;SDS011;20055;51.498;11.960;2023-08-12T11:45:15;5.15;;;2.88;;
29728;SDS011;20055;51.498;11.960;2023-08-12T11:47:42;7.27;;;2.93;;
29728;SDS011;20055;51.498;11.960;2023-08-12T11:50:10;4.07;;;2.38;;
29728;SDS011;20055;51.498;11.960;2023-08-12T11:52:37;4.72;;;2.50;;
29728;SDS011;20055;51.498;11.960;2023-08-12T11:55:05;4.65;;;3.08;;
29728;SDS011;20055;51.498;11.960;2023-08-12T11:57:32;6.78;;;3.08;;
29728;SDS011;20055;51.498;11.960;2023-08-12T12:00:03;5.88;;;2.92;;
29728;SDS011;20055;51.498;11.960;2023-08-12T12:03:02;5.35;;;3.33;;
29728;SDS011;20055;51.498;11.960;2023-08-12T12:05:28;3.83;;;2.40;;
29728;SDS011;20055;51.498;11.960;2023-08-12T12:07:56;5.28;;;2.33;;
29728;SDS011;20055;51.498;11.960;2023-08-12T12:10:26;3.13;;;2.83;;
29728;SDS011;20055;51.498;11.960;2023-08-12T12:12:55;7.30;;;2.65;;
29728;SDS011;20055;51.498;11.960;2023-08-12T12:15:22;4.63;;;2.70;;
29728;SDS011;20055;51.498;11.960;2023-08-12T12:17:49;6.35;;;3.08;;
29728;SDS011;20055;51.498;11.960;2023-08-12T12:20:16;3.90;;;2.60;;
29728;SDS011;20055;51.498;11.960;2023-08-12T12:22:43;3.45;;;2.15;;
29728;SDS011;20055;51.498;11.960;2023-08-12T12:25:11;3.63;;;2.60;;
29728;SDS011;20055;51.498;11.960;2023-08-12T12:27:40;4.28;;;2.53;;
29728;SDS011;20055;51.498;11.960;2023-08-12T12:30:09;3.10;;;1.90;;
29728;SDS011;20055;51.498;11.960;2023-08-12T12:32:37;5.13;;;2.15;;
29728;SDS011;20055;51.498;11.960;2023-08-12T12:35:04;3.25;;;2.13;;
29728;SDS011;20055;51.498;11.960;2023-08-12T12:37:33;6.25;;;2.80;;
29728;SDS011;20055;51.498;11.960;2023-08-12T12:39:59;3.75;;;2.80;;
29728;SDS011;20055;51.498;11.960;2023-08-12T12:42:26;7.50;;;2.40;;
29728;SDS011;20055;51.498;11.960;2023-08-12T12:44:52;3.83;;;2.25;;
29728;SDS011;20055;51.498;11.960;2023-08-12T12:47:18;6.95;;;3.00;;
29728;SDS011;20055;51.498;11.960;2023-08-12T12:49:45;3.67;;;2.47;;
29728;SDS011;20055;51.498;11.960;2023-08-12T12:52:11;4.07;;;2.28;;
29728;SDS011;20055;51.498;11.960;2023-08-12T12:54:38;8.52;;;3.70;;
29728;SDS011;20055;51.498;11.960;2023-08-12T12:57:04;3.58;;;2.42;;
29728;SDS011;20055;51.498;11.960;2023-08-12T12:59:31;3.47;;;2.53;;
29728;SDS011;20055;51.498;11.960;2023-08-12T13:01:57;2.35;;;2.15;;
29728;SDS011;20055;51.498;11.960;2023-08-12T13:04:24;2.97;;;2.25;;
29728;SDS011;20055;51.498;11.960;2023-08-12T13:06:50;6.68;;;2.38;;
29728;SDS011;20055;51.498;11.960;2023-08-12T13:09:16;6.60;;;2.47;;
29728;SDS011;20055;51.498;11.960;2023-08-12T13:11:43;7.43;;;2.50;;
29728;SDS011;20055;51.498;11.960;2023-08-12T13:14:09;2.00;;;1.80;;
29728;SDS011;20055;51.498;11.960;2023-08-12T13:16:35;9.68;;;2.50;;
29728;SDS011;20055;51.498;11.960;2023-08-12T13:19:01;3.53;;;2.40;;
29728;SDS011;20055;51.498;11.960;2023-08-12T13:21:28;5.40;;;2.33;;
29728;SDS011;20055;51.498;11.960;2023-08-12T13:23:54;2.60;;;2.15;;
29728;SDS011;20055;51.498;11.960;2023-08-12T13:26:23;10.97;;;2.87;;
29728;SDS011;20055;51.498;11.960;2023-08-12T13:28:49;6.53;;;2.40;;
29728;SDS011;20055;51.498;11.960;2023-08-12T13:31:16;4.65;;;2.55;;
29728;SDS011;20055;51.498;11.960;2023-08-12T13:33:42;5.05;;;2.25;;
29728;SDS011;20055;51.498;11.960;2023-08-12T13:36:08;3.10;;;2.58;;
29728;SDS011;20055;51.498;11.960;2023-08-12T13:38:34;5.60;;;2.40;;
29728;SDS011;20055;51.498;11.960;2023-08-12T13:41:01;8.38;;;3.15;;
29728;SDS011;20055;51.498;11.960;2023-08-12T13:43:27;7.32;;;2.70;;
29728;SDS011;20055;51.498;11.960;2023-08-12T13:45:53;7.28;;;2.75;;
29728;SDS011;20055;51.498;11.960;2023-08-12T13:48:19;5.72;;;2.38;;
29728;SDS011;20055;51.498;11.960;2023-08-12T13:50:45;5.47;;;2.70;;
29728;SDS011;20055;51.498;11.960;2023-08-12T13:53:15;3.03;;;2.50;;
29728;SDS011;20055;51.498;11.960;2023-08-12T13:55:41;2.88;;;2.40;;
29728;SDS011;20055;51.498;11.960;2023-08-12T13:58:08;4.65;;;2.58;;
29728;SDS011;20055;51.498;11.960;2023-08-12T14:00:34;3.42;;;2.50;;
29728;SDS011;20055;51.498;11.960;2023-08-12T14:03:00;8.02;;;2.63;;
29728;SDS011;20055;51.498;11.960;2023-08-12T14:05:27;5.20;;;2.65;;
29728;SDS011;20055;51.498;11.960;2023-08-12T14:07:53;5.28;;;2.63;;
29728;SDS011;20055;51.498;11.960;2023-08-12T14:10:19;3.97;;;2.50;;
29728;SDS011;20055;51.498;11.960;2023-08-12T14:12:45;3.40;;;2.55;;
29728;SDS011;20055;51.498;11.960;2023-08-12T14:15:14;6.70;;;2.65;;
29728;SDS011;20055;51.498;11.960;2023-08-12T14:17:40;3.08;;;2.50;;
29728;SDS011;20055;51.498;11.960;2023-08-12T14:20:07;4.00;;;2.85;;
29728;SDS011;20055;51.498;11.960;2023-08-12T14:22:34;5.28;;;2.60;;
29728;SDS011;20055;51.498;11.960;2023-08-12T14:25:04;3.78;;;2.42;;
29728;SDS011;20055;51.498;11.960;2023-08-12T14:27:30;4.70;;;2.45;;
29728;SDS011;20055;51.498;11.960;2023-08-12T14:29:57;4.25;;;2.70;;
29728;SDS011;20055;51.498;11.960;2023-08-12T14:32:23;3.85;;;2.45;;
29728;SDS011;20055;51.498;11.960;2023-08-12T14:34:49;2.80;;;2.20;;
29728;SDS011;20055;51.498;11.960;2023-08-12T14:37:15;6.45;;;2.60;;
29728;SDS011;20055;51.498;11.960;2023-08-12T14:39:42;15.68;;;2.67;;
29728;SDS011;20055;51.498;11.960;2023-08-12T14:42:08;6.28;;;2.65;;